sensor_id;sensor_type;location;lat;lon;timestamp;P1;durP1;ratioP1;P2;durP2;ratioP2
52468;SDS011;38381;53.688;10.776;2023-10-31T00:02:22;2.65;;;2.20;;
52468;SDS011;38381;53.688;10.776;2023-10-31T00:07:22;3.83;;;2.13;;
52468;SDS011;38381;53.688;10.776;2023-10-31T00:12:22;5.17;;;2.70;;
52468;SDS011;38381;53.688;10.776;2023-10-31T00:17:23;2.20;;;1.63;;
52468;SDS011;38381;53.688;10.776;2023-10-31T00:27:26;2.47;;;1.90;;
52468;SDS011;38381;53.688;10.776;2023-10-31T00:32:26;4.10;;;2.47;;
52468;SDS011;38381;53.688;10.776;2023-10-31T00:37:27;5.55;;;2.88;;
52468;SDS011;38381;53.688;10.776;2023-10-31T00:42:27;4.63;;;2.60;;
52468;SDS011;38381;53.688;10.776;2023-10-31T00:47:27;3.95;;;2.88;;
52468;SDS011;38381;53.688;10.776;2023-10-31T00:52:28;4.87;;;2.63;;
52468;SDS011;38381;53.688;10.776;2023-10-31T00:57:28;5.00;;;3.37;;
52468;SDS011;38381;53.688;10.776;2023-10-31T01:02:30;4.15;;;3.15;;
52468;SDS011;38381;53.688;10.776;2023-10-31T01:07:30;3.80;;;3.27;;
52468;SDS011;38381;53.688;10.776;2023-10-31T01:12:30;6.72;;;3.65;;
52468;SDS011;38381;53.688;10.776;2023-10-31T01:17:31;20.25;;;4.30;;
52468;SDS011;38381;53.688;10.776;2023-10-31T01:22:31;6.50;;;4.20;;
52468;SDS011;38381;53.688;10.776;2023-10-31T01:27:32;6.30;;;4.90;;
52468;SDS011;38381;53.688;10.776;2023-10-31T01:32:32;4.88;;;4.20;;
52468;SDS011;38381;53.688;10.776;2023-10-31T01:37:33;6.27;;;4.80;;
52468;SDS011;38381;53.688;10.776;2023-10-31T01:42:33;5.93;;;4.05;;
52468;SDS011;38381;53.688;10.776;2023-10-31T01:47:34;5.68;;;4.80;;
52468;SDS011;38381;53.688;10.776;2023-10-31T01:52:34;6.22;;;4.40;;
52468;SDS011;38381;53.688;10.776;2023-10-31T01:57:36;5.35;;;3.88;;
52468;SDS011;38381;53.688;10.776;2023-10-31T02:02:36;4.80;;;3.33;;
52468;SDS011;38381;53.688;10.776;2023-10-31T02:07:40;5.15;;;3.80;;
52468;SDS011;38381;53.688;10.776;2023-10-31T02:12:44;5.65;;;3.88;;
52468;SDS011;38381;53.688;10.776;2023-10-31T02:17:45;4.68;;;3.60;;
52468;SDS011;38381;53.688;10.776;2023-10-31T02:22:45;6.73;;;3.77;;
52468;SDS011;38381;53.688;10.776;2023-10-31T02:27:45;11.10;;;4.40;;
52468;SDS011;38381;53.688;10.776;2023-10-31T02:32:46;7.53;;;3.80;;
52468;SDS011;38381;53.688;10.776;2023-10-31T02:37:47;5.88;;;3.70;;
52468;SDS011;38381;53.688;10.776;2023-10-31T02:42:48;7.82;;;3.92;;
52468;SDS011;38381;53.688;10.776;2023-10-31T02:47:49;6.10;;;3.60;;
52468;SDS011;38381;53.688;10.776;2023-10-31T02:52:49;3.72;;;2.88;;
52468;SDS011;38381;53.688;10.776;2023-10-31T02:57:49;6.37;;;4.37;;
52468;SDS011;38381;53.688;10.776;2023-10-31T03:02:50;4.68;;;4.28;;
52468;SDS011;38381;53.688;10.776;2023-10-31T03:07:50;7.57;;;4.70;;
52468;SDS011;38381;53.688;10.776;2023-10-31T03:12:51;4.53;;;3.95;;
52468;SDS011;38381;53.688;10.776;2023-10-31T03:17:51;5.95;;;3.75;;
52468;SDS011;38381;53.688;10.776;2023-10-31T03:22:51;6.60;;;4.13;;
52468;SDS011;38381;53.688;10.776;2023-10-31T03:27:52;5.88;;;4.13;;
52468;SDS011;38381;53.688;10.776;2023-10-31T03:32:52;4.47;;;3.75;;
52468;SDS011;38381;53.688;10.776;2023-10-31T03:37:52;4.88;;;4.07;;
52468;SDS011;38381;53.688;10.776;2023-10-31T03:42:53;4.27;;;3.80;;
52468;SDS011;38381;53.688;10.776;2023-10-31T03:47:53;5.00;;;4.47;;
52468;SDS011;38381;53.688;10.776;2023-10-31T03:52:54;7.13;;;4.45;;
52468;SDS011;38381;53.688;10.776;2023-10-31T03:57:54;5.85;;;4.80;;
52468;SDS011;38381;53.688;10.776;2023-10-31T04:02:55;6.25;;;4.57;;
52468;SDS011;38381;53.688;10.776;2023-10-31T04:07:55;3.88;;;3.47;;
52468;SDS011;38381;53.688;10.776;2023-10-31T04:12:56;5.88;;;4.10;;
52468;SDS011;38381;53.688;10.776;2023-10-31T04:17:56;6.80;;;4.57;;
52468;SDS011;38381;53.688;10.776;2023-10-31T04:22:56;4.67;;;4.10;;
52468;SDS011;38381;53.688;10.776;2023-10-31T04:27:57;5.30;;;4.80;;
52468;SDS011;38381;53.688;10.776;2023-10-31T04:32:58;5.07;;;4.40;;
52468;SDS011;38381;53.688;10.776;2023-10-31T04:37:58;4.23;;;3.77;;
52468;SDS011;38381;53.688;10.776;2023-10-31T04:42:58;6.25;;;4.15;;
52468;SDS011;38381;53.688;10.776;2023-10-31T04:47:59;5.80;;;4.18;;
52468;SDS011;38381;53.688;10.776;2023-10-31T04:52:59;5.72;;;5.13;;
52468;SDS011;38381;53.688;10.776;2023-10-31T04:58:00;6.25;;;4.10;;
52468;SDS011;38381;53.688;10.776;2023-10-31T05:03:00;5.90;;;4.03;;
52468;SDS011;38381;53.688;10.776;2023-10-31T05:08:02;8.17;;;4.93;;
52468;SDS011;38381;53.688;10.776;2023-10-31T05:13:02;6.05;;;5.45;;
52468;SDS011;38381;53.688;10.776;2023-10-31T05:18:03;5.72;;;5.13;;
52468;SDS011;38381;53.688;10.776;2023-10-31T05:23:03;6.53;;;5.32;;
52468;SDS011;38381;53.688;10.776;2023-10-31T05:28:04;6.32;;;5.47;;
52468;SDS011;38381;53.688;10.776;2023-10-31T05:33:04;7.80;;;5.60;;
52468;SDS011;38381;53.688;10.776;2023-10-31T05:38:05;5.47;;;4.75;;
52468;SDS011;38381;53.688;10.776;2023-10-31T05:43:05;4.83;;;4.43;;
52468;SDS011;38381;53.688;10.776;2023-10-31T05:48:06;7.28;;;6.50;;
52468;SDS011;38381;53.688;10.776;2023-10-31T05:53:06;7.38;;;6.25;;
52468;SDS011;38381;53.688;10.776;2023-10-31T05:58:06;7.83;;;5.70;;
52468;SDS011;38381;53.688;10.776;2023-10-31T06:03:07;6.25;;;5.65;;
52468;SDS011;38381;53.688;10.776;2023-10-31T06:08:08;8.98;;;6.72;;
52468;SDS011;38381;53.688;10.776;2023-10-31T06:13:09;9.23;;;6.17;;
52468;SDS011;38381;53.688;10.776;2023-10-31T06:18:09;6.57;;;5.97;;
52468;SDS011;38381;53.688;10.776;2023-10-31T06:23:10;15.82;;;6.45;;
52468;SDS011;38381;53.688;10.776;2023-10-31T06:28:10;7.55;;;6.55;;
52468;SDS011;38381;53.688;10.776;2023-10-31T06:33:10;7.43;;;6.70;;
52468;SDS011;38381;53.688;10.776;2023-10-31T06:38:12;9.10;;;6.57;;
52468;SDS011;38381;53.688;10.776;2023-10-31T06:43:13;11.38;;;6.93;;
52468;SDS011;38381;53.688;10.776;2023-10-31T06:48:13;8.20;;;6.30;;
52468;SDS011;38381;53.688;10.776;2023-10-31T06:53:14;7.10;;;6.40;;
52468;SDS011;38381;53.688;10.776;2023-10-31T06:58:14;7.15;;;5.63;;
52468;SDS011;38381;53.688;10.776;2023-10-31T07:03:19;4.50;;;4.10;;
52468;SDS011;38381;53.688;10.776;2023-10-31T07:08:19;4.43;;;4.03;;
52468;SDS011;38381;53.688;10.776;2023-10-31T07:13:20;4.33;;;3.13;;
52468;SDS011;38381;53.688;10.776;2023-10-31T07:18:20;3.72;;;3.33;;
52468;SDS011;38381;53.688;10.776;2023-10-31T07:23:21;3.43;;;2.47;;
52468;SDS011;38381;53.688;10.776;2023-10-31T07:28:21;3.38;;;2.30;;
52468;SDS011;38381;53.688;10.776;2023-10-31T07:33:21;2.63;;;1.90;;
52468;SDS011;38381;53.688;10.776;2023-10-31T07:38:22;2.38;;;1.70;;
52468;SDS011;38381;53.688;10.776;2023-10-31T07:43:22;2.30;;;1.90;;
52468;SDS011;38381;53.688;10.776;2023-10-31T07:48:23;1.67;;;1.30;;
52468;SDS011;38381;53.688;10.776;2023-10-31T07:53:23;1.48;;;1.35;;
52468;SDS011;38381;53.688;10.776;2023-10-31T07:58:23;2.40;;;2.17;;
52468;SDS011;38381;53.688;10.776;2023-10-31T08:03:24;2.87;;;1.77;;
52468;SDS011;38381;53.688;10.776;2023-10-31T08:08:25;2.47;;;1.95;;
52468;SDS011;38381;53.688;10.776;2023-10-31T08:13:25;2.60;;;2.30;;
52468;SDS011;38381;53.688;10.776;2023-10-31T08:18:26;3.97;;;2.70;;
52468;SDS011;38381;53.688;10.776;2023-10-31T08:23:27;4.85;;;4.25;;
52468;SDS011;38381;53.688;10.776;2023-10-31T08:28:29;4.85;;;4.35;;
52468;SDS011;38381;53.688;10.776;2023-10-31T08:33:35;5.10;;;4.43;;
52468;SDS011;38381;53.688;10.776;2023-10-31T08:38:36;5.60;;;5.00;;
52468;SDS011;38381;53.688;10.776;2023-10-31T08:43:36;5.27;;;4.10;;
52468;SDS011;38381;53.688;10.776;2023-10-31T08:48:36;4.85;;;3.45;;
52468;SDS011;38381;53.688;10.776;2023-10-31T08:53:37;4.97;;;3.38;;
52468;SDS011;38381;53.688;10.776;2023-10-31T08:58:37;3.37;;;3.07;;
52468;SDS011;38381;53.688;10.776;2023-10-31T09:03:38;2.70;;;2.25;;
52468;SDS011;38381;53.688;10.776;2023-10-31T09:08:38;2.22;;;1.60;;
52468;SDS011;38381;53.688;10.776;2023-10-31T09:13:39;1.70;;;1.42;;
52468;SDS011;38381;53.688;10.776;2023-10-31T09:18:40;1.30;;;1.20;;
52468;SDS011;38381;53.688;10.776;2023-10-31T09:23:43;1.48;;;1.15;;
52468;SDS011;38381;53.688;10.776;2023-10-31T09:28:43;0.97;;;0.90;;
52468;SDS011;38381;53.688;10.776;2023-10-31T09:33:49;1.13;;;1.02;;
52468;SDS011;38381;53.688;10.776;2023-10-31T09:38:50;1.48;;;1.38;;
52468;SDS011;38381;53.688;10.776;2023-10-31T09:43:50;0.73;;;0.73;;
52468;SDS011;38381;53.688;10.776;2023-10-31T09:48:51;1.30;;;0.90;;
52468;SDS011;38381;53.688;10.776;2023-10-31T09:53:51;1.70;;;1.10;;
52468;SDS011;38381;53.688;10.776;2023-10-31T09:58:54;0.75;;;0.75;;
52468;SDS011;38381;53.688;10.776;2023-10-31T10:03:56;0.82;;;0.82;;
52468;SDS011;38381;53.688;10.776;2023-10-31T10:08:58;2.17;;;1.30;;
52468;SDS011;38381;53.688;10.776;2023-10-31T10:24:17;1.92;;;1.83;;
52468;SDS011;38381;53.688;10.776;2023-10-31T10:29:18;1.75;;;1.65;;
52468;SDS011;38381;53.688;10.776;2023-10-31T10:34:19;2.58;;;1.92;;
52468;SDS011;38381;53.688;10.776;2023-10-31T10:39:22;2.50;;;2.30;;
52468;SDS011;38381;53.688;10.776;2023-10-31T10:44:30;2.70;;;2.10;;
52468;SDS011;38381;53.688;10.776;2023-10-31T10:49:36;2.13;;;1.60;;
52468;SDS011;38381;53.688;10.776;2023-10-31T10:54:40;1.70;;;1.33;;
52468;SDS011;38381;53.688;10.776;2023-10-31T10:59:49;2.03;;;1.55;;
52468;SDS011;38381;53.688;10.776;2023-10-31T11:04:56;1.80;;;1.17;;
52468;SDS011;38381;53.688;10.776;2023-10-31T11:09:59;1.10;;;1.00;;
52468;SDS011;38381;53.688;10.776;2023-10-31T11:15:02;0.73;;;0.73;;
52468;SDS011;38381;53.688;10.776;2023-10-31T11:20:04;0.80;;;0.80;;
52468;SDS011;38381;53.688;10.776;2023-10-31T11:25:28;0.73;;;0.73;;
52468;SDS011;38381;53.688;10.776;2023-10-31T11:30:33;0.80;;;0.80;;
52468;SDS011;38381;53.688;10.776;2023-10-31T11:35:36;1.58;;;1.20;;
52468;SDS011;38381;53.688;10.776;2023-10-31T11:45:49;0.90;;;0.90;;
52468;SDS011;38381;53.688;10.776;2023-10-31T11:50:49;1.00;;;1.00;;
52468;SDS011;38381;53.688;10.776;2023-10-31T11:55:50;0.88;;;0.88;;
52468;SDS011;38381;53.688;10.776;2023-10-31T12:00:51;2.60;;;1.55;;
52468;SDS011;38381;53.688;10.776;2023-10-31T12:05:53;1.30;;;1.20;;
52468;SDS011;38381;53.688;10.776;2023-10-31T12:16:09;0.63;;;0.63;;
52468;SDS011;38381;53.688;10.776;2023-10-31T12:21:11;1.00;;;0.90;;
52468;SDS011;38381;53.688;10.776;2023-10-31T12:26:14;0.80;;;0.80;;
52468;SDS011;38381;53.688;10.776;2023-10-31T12:31:22;0.82;;;0.82;;
52468;SDS011;38381;53.688;10.776;2023-10-31T12:36:23;1.00;;;0.90;;
52468;SDS011;38381;53.688;10.776;2023-10-31T12:41:25;0.70;;;0.70;;
52468;SDS011;38381;53.688;10.776;2023-10-31T12:46:31;1.02;;;1.02;;
52468;SDS011;38381;53.688;10.776;2023-10-31T12:51:32;0.70;;;0.70;;
52468;SDS011;38381;53.688;10.776;2023-10-31T13:01:42;0.70;;;0.70;;
52468;SDS011;38381;53.688;10.776;2023-10-31T13:06:54;0.82;;;0.80;;
52468;SDS011;38381;53.688;10.776;2023-10-31T13:12:00;0.70;;;0.70;;
52468;SDS011;38381;53.688;10.776;2023-10-31T13:17:02;1.00;;;1.00;;
52468;SDS011;38381;53.688;10.776;2023-10-31T13:22:02;0.88;;;0.88;;
52468;SDS011;38381;53.688;10.776;2023-10-31T13:27:03;1.25;;;1.15;;
52468;SDS011;38381;53.688;10.776;2023-10-31T13:32:04;2.20;;;1.60;;
52468;SDS011;38381;53.688;10.776;2023-10-31T13:37:04;1.83;;;1.45;;
52468;SDS011;38381;53.688;10.776;2023-10-31T13:42:05;2.57;;;1.73;;
52468;SDS011;38381;53.688;10.776;2023-10-31T13:47:06;1.20;;;1.10;;
52468;SDS011;38381;53.688;10.776;2023-10-31T13:52:08;1.53;;;1.10;;
52468;SDS011;38381;53.688;10.776;2023-10-31T13:57:09;1.00;;;0.95;;
52468;SDS011;38381;53.688;10.776;2023-10-31T14:02:10;1.02;;;0.90;;
52468;SDS011;38381;53.688;10.776;2023-10-31T14:07:12;1.55;;;1.42;;
52468;SDS011;38381;53.688;10.776;2023-10-31T14:12:20;2.72;;;1.40;;
52468;SDS011;38381;53.688;10.776;2023-10-31T14:17:20;1.30;;;1.20;;
52468;SDS011;38381;53.688;10.776;2023-10-31T14:22:23;2.15;;;1.38;;
52468;SDS011;38381;53.688;10.776;2023-10-31T14:27:23;2.05;;;1.83;;
52468;SDS011;38381;53.688;10.776;2023-10-31T14:32:24;1.27;;;1.17;;
52468;SDS011;38381;53.688;10.776;2023-10-31T14:37:24;2.03;;;1.60;;
52468;SDS011;38381;53.688;10.776;2023-10-31T14:42:24;2.00;;;1.70;;
52468;SDS011;38381;53.688;10.776;2023-10-31T14:47:25;3.25;;;2.10;;
52468;SDS011;38381;53.688;10.776;2023-10-31T14:52:25;1.50;;;1.40;;
52468;SDS011;38381;53.688;10.776;2023-10-31T14:57:26;2.03;;;1.77;;
52468;SDS011;38381;53.688;10.776;2023-10-31T15:02:26;1.67;;;1.58;;
52468;SDS011;38381;53.688;10.776;2023-10-31T15:07:30;1.95;;;1.75;;
52468;SDS011;38381;53.688;10.776;2023-10-31T15:12:30;2.33;;;2.03;;
52468;SDS011;38381;53.688;10.776;2023-10-31T15:17:30;3.30;;;2.85;;
52468;SDS011;38381;53.688;10.776;2023-10-31T15:22:32;4.90;;;2.67;;
52468;SDS011;38381;53.688;10.776;2023-10-31T15:27:33;1.50;;;1.40;;
52468;SDS011;38381;53.688;10.776;2023-10-31T15:32:34;1.50;;;1.38;;
52468;SDS011;38381;53.688;10.776;2023-10-31T15:37:36;1.57;;;1.43;;
52468;SDS011;38381;53.688;10.776;2023-10-31T15:42:36;1.80;;;1.67;;
52468;SDS011;38381;53.688;10.776;2023-10-31T15:47:37;1.40;;;1.30;;
52468;SDS011;38381;53.688;10.776;2023-10-31T15:52:37;1.15;;;1.05;;
52468;SDS011;38381;53.688;10.776;2023-10-31T15:57:38;2.00;;;1.70;;
52468;SDS011;38381;53.688;10.776;2023-10-31T16:02:39;1.30;;;1.20;;
52468;SDS011;38381;53.688;10.776;2023-10-31T16:07:39;1.73;;;1.38;;
52468;SDS011;38381;53.688;10.776;2023-10-31T16:12:39;1.77;;;1.33;;
52468;SDS011;38381;53.688;10.776;2023-10-31T16:17:40;1.80;;;1.70;;
52468;SDS011;38381;53.688;10.776;2023-10-31T16:22:40;4.07;;;1.70;;
52468;SDS011;38381;53.688;10.776;2023-10-31T16:27:41;2.53;;;1.90;;
52468;SDS011;38381;53.688;10.776;2023-10-31T16:32:41;2.67;;;1.57;;
52468;SDS011;38381;53.688;10.776;2023-10-31T16:37:41;1.67;;;1.40;;
52468;SDS011;38381;53.688;10.776;2023-10-31T16:42:42;1.80;;;1.50;;
52468;SDS011;38381;53.688;10.776;2023-10-31T16:47:43;1.73;;;1.45;;
52468;SDS011;38381;53.688;10.776;2023-10-31T16:52:45;1.50;;;1.40;;
52468;SDS011;38381;53.688;10.776;2023-10-31T16:57:46;1.50;;;1.40;;
52468;SDS011;38381;53.688;10.776;2023-10-31T17:02:46;2.03;;;1.83;;
52468;SDS011;38381;53.688;10.776;2023-10-31T17:07:46;1.90;;;1.70;;
52468;SDS011;38381;53.688;10.776;2023-10-31T17:12:47;1.92;;;1.58;;
52468;SDS011;38381;53.688;10.776;2023-10-31T17:17:49;2.00;;;1.77;;
52468;SDS011;38381;53.688;10.776;2023-10-31T17:22:50;2.05;;;1.85;;
52468;SDS011;38381;53.688;10.776;2023-10-31T17:27:50;2.00;;;1.80;;
52468;SDS011;38381;53.688;10.776;2023-10-31T17:32:50;3.58;;;2.67;;
52468;SDS011;38381;53.688;10.776;2023-10-31T17:37:53;3.45;;;3.15;;
52468;SDS011;38381;53.688;10.776;2023-10-31T17:42:53;2.80;;;1.93;;
52468;SDS011;38381;53.688;10.776;2023-10-31T17:47:53;2.95;;;2.75;;
52468;SDS011;38381;53.688;10.776;2023-10-31T17:52:56;2.20;;;1.80;;
52468;SDS011;38381;53.688;10.776;2023-10-31T17:57:56;3.00;;;2.50;;
52468;SDS011;38381;53.688;10.776;2023-10-31T18:02:57;3.40;;;1.97;;
52468;SDS011;38381;53.688;10.776;2023-10-31T18:07:58;2.97;;;2.20;;
52468;SDS011;38381;53.688;10.776;2023-10-31T18:12:58;2.38;;;1.95;;
52468;SDS011;38381;53.688;10.776;2023-10-31T18:17:59;3.77;;;2.37;;
52468;SDS011;38381;53.688;10.776;2023-10-31T18:22:59;3.85;;;2.40;;
52468;SDS011;38381;53.688;10.776;2023-10-31T18:27:59;3.63;;;2.60;;
52468;SDS011;38381;53.688;10.776;2023-10-31T18:33:00;3.22;;;2.92;;
52468;SDS011;38381;53.688;10.776;2023-10-31T18:38:02;3.47;;;3.05;;
52468;SDS011;38381;53.688;10.776;2023-10-31T18:43:03;3.05;;;2.25;;
52468;SDS011;38381;53.688;10.776;2023-10-31T18:48:03;2.42;;;2.17;;
52468;SDS011;38381;53.688;10.776;2023-10-31T18:53:04;3.60;;;3.22;;
52468;SDS011;38381;53.688;10.776;2023-10-31T18:58:04;4.45;;;3.85;;
52468;SDS011;38381;53.688;10.776;2023-10-31T19:03:05;4.77;;;4.30;;
52468;SDS011;38381;53.688;10.776;2023-10-31T19:08:05;3.77;;;3.27;;
52468;SDS011;38381;53.688;10.776;2023-10-31T19:13:05;5.30;;;2.88;;
52468;SDS011;38381;53.688;10.776;2023-10-31T19:18:06;6.93;;;4.25;;
52468;SDS011;38381;53.688;10.776;2023-10-31T19:23:06;2.85;;;2.42;;
52468;SDS011;38381;53.688;10.776;2023-10-31T19:28:06;2.50;;;2.30;;
52468;SDS011;38381;53.688;10.776;2023-10-31T19:33:08;4.43;;;2.58;;
52468;SDS011;38381;53.688;10.776;2023-10-31T19:38:08;2.70;;;2.33;;
52468;SDS011;38381;53.688;10.776;2023-10-31T19:43:09;3.35;;;2.35;;
52468;SDS011;38381;53.688;10.776;2023-10-31T19:48:11;4.13;;;2.20;;
52468;SDS011;38381;53.688;10.776;2023-10-31T19:53:12;2.90;;;2.35;;
52468;SDS011;38381;53.688;10.776;2023-10-31T19:58:12;3.45;;;3.15;;
52468;SDS011;38381;53.688;10.776;2023-10-31T20:03:13;3.65;;;2.97;;
52468;SDS011;38381;53.688;10.776;2023-10-31T20:08:14;2.73;;;2.53;;
52468;SDS011;38381;53.688;10.776;2023-10-31T20:13:14;3.30;;;2.60;;
52468;SDS011;38381;53.688;10.776;2023-10-31T20:18:15;2.83;;;2.10;;
52468;SDS011;38381;53.688;10.776;2023-10-31T20:23:16;6.32;;;2.53;;
52468;SDS011;38381;53.688;10.776;2023-10-31T20:28:17;5.53;;;2.83;;
52468;SDS011;38381;53.688;10.776;2023-10-31T20:33:17;4.70;;;2.67;;
52468;SDS011;38381;53.688;10.776;2023-10-31T20:38:18;3.00;;;2.45;;
52468;SDS011;38381;53.688;10.776;2023-10-31T20:43:18;2.67;;;2.07;;
52468;SDS011;38381;53.688;10.776;2023-10-31T20:48:19;2.88;;;2.25;;
52468;SDS011;38381;53.688;10.776;2023-10-31T20:53:20;2.95;;;2.65;;
52468;SDS011;38381;53.688;10.776;2023-10-31T20:58:20;2.38;;;2.17;;
52468;SDS011;38381;53.688;10.776;2023-10-31T21:03:21;3.25;;;2.95;;
52468;SDS011;38381;53.688;10.776;2023-10-31T21:08:22;2.45;;;2.03;;
52468;SDS011;38381;53.688;10.776;2023-10-31T21:13:22;4.40;;;3.58;;
52468;SDS011;38381;53.688;10.776;2023-10-31T21:18:23;3.60;;;2.50;;
52468;SDS011;38381;53.688;10.776;2023-10-31T21:23:24;3.60;;;2.90;;
52468;SDS011;38381;53.688;10.776;2023-10-31T21:28:24;5.65;;;2.50;;
52468;SDS011;38381;53.688;10.776;2023-10-31T21:33:26;5.30;;;2.40;;
52468;SDS011;38381;53.688;10.776;2023-10-31T21:38:26;2.73;;;2.03;;
52468;SDS011;38381;53.688;10.776;2023-10-31T21:43:27;2.83;;;2.53;;
52468;SDS011;38381;53.688;10.776;2023-10-31T21:48:27;3.83;;;2.60;;
52468;SDS011;38381;53.688;10.776;2023-10-31T21:53:28;4.95;;;2.78;;
52468;SDS011;38381;53.688;10.776;2023-10-31T21:58:28;2.90;;;2.50;;
52468;SDS011;38381;53.688;10.776;2023-10-31T22:03:29;3.15;;;2.85;;
52468;SDS011;38381;53.688;10.776;2023-10-31T22:08:29;5.15;;;2.50;;
52468;SDS011;38381;53.688;10.776;2023-10-31T22:13:29;3.40;;;2.85;;
52468;SDS011;38381;53.688;10.776;2023-10-31T22:18:30;4.13;;;3.20;;
52468;SDS011;38381;53.688;10.776;2023-10-31T22:23:30;2.50;;;2.30;;
52468;SDS011;38381;53.688;10.776;2023-10-31T22:28:31;2.70;;;2.40;;
52468;SDS011;38381;53.688;10.776;2023-10-31T22:33:31;3.70;;;2.85;;
52468;SDS011;38381;53.688;10.776;2023-10-31T22:38:31;3.50;;;2.45;;
52468;SDS011;38381;53.688;10.776;2023-10-31T22:43:32;4.93;;;3.07;;
52468;SDS011;38381;53.688;10.776;2023-10-31T22:48:33;3.58;;;3.03;;
52468;SDS011;38381;53.688;10.776;2023-10-31T22:53:33;3.57;;;2.87;;
52468;SDS011;38381;53.688;10.776;2023-10-31T22:58:34;4.95;;;2.80;;
52468;SDS011;38381;53.688;10.776;2023-10-31T23:03:34;3.17;;;2.87;;
52468;SDS011;38381;53.688;10.776;2023-10-31T23:08:35;4.43;;;3.80;;
52468;SDS011;38381;53.688;10.776;2023-10-31T23:13:36;6.18;;;4.07;;
52468;SDS011;38381;53.688;10.776;2023-10-31T23:18:37;4.53;;;3.53;;
52468;SDS011;38381;53.688;10.776;2023-10-31T23:23:38;3.75;;;3.45;;
52468;SDS011;38381;53.688;10.776;2023-10-31T23:28:39;3.83;;;2.93;;
52468;SDS011;38381;53.688;10.776;2023-10-31T23:33:39;3.20;;;2.83;;
52468;SDS011;38381;53.688;10.776;2023-10-31T23:38:40;3.28;;;2.80;;
52468;SDS011;38381;53.688;10.776;2023-10-31T23:43:40;5.30;;;3.05;;
52468;SDS011;38381;53.688;10.776;2023-10-31T23:48:41;3.30;;;3.00;;
52468;SDS011;38381;53.688;10.776;2023-10-31T23:53:41;4.05;;;3.33;;
52468;SDS011;38381;53.688;10.776;2023-10-31T23:58:41;3.15;;;2.75;;
